sensor_id;sensor_type;location;lat;lon;timestamp;temperature;humidity
17007;DHT22;8620;51.168;4.154;2024-02-23T07:35:19;6.80;99.90
17007;DHT22;8620;51.168;4.154;2024-02-23T07:37:47;6.90;99.90
17007;DHT22;8620;51.168;4.154;2024-02-23T07:40:30;6.80;99.90
17007;DHT22;8620;51.168;4.154;2024-02-23T07:43:01;7.00;99.90
17007;DHT22;8620;51.168;4.154;2024-02-23T07:45:32;6.90;99.90
17007;DHT22;8620;51.168;4.154;2024-02-23T07:47:59;6.90;99.90
17007;DHT22;8620;51.168;4.154;2024-02-23T07:50:27;7.10;99.90
17007;DHT22;8620;51.168;4.154;2024-02-23T07:52:58;7.00;99.90
17007;DHT22;8620;51.168;4.154;2024-02-23T07:55:24;7.00;99.90
17007;DHT22;8620;51.168;4.154;2024-02-23T07:57:50;7.00;99.90
17007;DHT22;8620;51.168;4.154;2024-02-23T08:00:16;6.80;99.90
17007;DHT22;8620;51.168;4.154;2024-02-23T08:02:42;6.70;99.90
17007;DHT22;8620;51.168;4.154;2024-02-23T08:05:08;6.70;99.90
17007;DHT22;8620;51.168;4.154;2024-02-23T08:07:35;6.70;99.90
17007;DHT22;8620;51.168;4.154;2024-02-23T08:10:04;6.60;99.90
17007;DHT22;8620;51.168;4.154;2024-02-23T08:12:30;6.40;99.90
17007;DHT22;8620;51.168;4.154;2024-02-23T08:14:56;6.50;99.90
17007;DHT22;8620;51.168;4.154;2024-02-23T08:17:24;6.50;99.90
17007;DHT22;8620;51.168;4.154;2024-02-23T08:19:51;6.50;99.90
17007;DHT22;8620;51.168;4.154;2024-02-23T08:22:17;6.50;99.90
17007;DHT22;8620;51.168;4.154;2024-02-23T08:24:43;6.50;99.90
17007;DHT22;8620;51.168;4.154;2024-02-23T08:27:12;6.60;99.90
17007;DHT22;8620;51.168;4.154;2024-02-23T08:29:38;6.60;99.90
17007;DHT22;8620;51.168;4.154;2024-02-23T08:32:04;6.60;99.90
17007;DHT22;8620;51.168;4.154;2024-02-23T08:34:30;6.70;99.90
17007;DHT22;8620;51.168;4.154;2024-02-23T08:36:56;6.70;99.90
17007;DHT22;8620;51.168;4.154;2024-02-23T08:39:22;6.70;99.90
17007;DHT22;8620;51.168;4.154;2024-02-23T08:41:48;6.70;99.90
17007;DHT22;8620;51.168;4.154;2024-02-23T08:44:14;6.60;99.90
17007;DHT22;8620;51.168;4.154;2024-02-23T08:46:40;6.60;99.90
17007;DHT22;8620;51.168;4.154;2024-02-23T08:49:06;6.70;99.90
17007;DHT22;8620;51.168;4.154;2024-02-23T08:51:31;6.80;99.90
17007;DHT22;8620;51.168;4.154;2024-02-23T08:53:57;6.90;99.90
17007;DHT22;8620;51.168;4.154;2024-02-23T08:56:31;6.90;99.90
17007;DHT22;8620;51.168;4.154;2024-02-23T08:58:58;6.90;99.90
17007;DHT22;8620;51.168;4.154;2024-02-23T09:01:24;7.00;99.90
17007;DHT22;8620;51.168;4.154;2024-02-23T09:03:50;6.90;99.90
17007;DHT22;8620;51.168;4.154;2024-02-23T09:06:16;7.20;99.90
17007;DHT22;8620;51.168;4.154;2024-02-23T09:08:41;7.00;99.90
17007;DHT22;8620;51.168;4.154;2024-02-23T09:11:10;7.10;99.90
17007;DHT22;8620;51.168;4.154;2024-02-23T09:13:38;7.00;99.90
17007;DHT22;8620;51.168;4.154;2024-02-23T09:16:08;6.90;99.90
17007;DHT22;8620;51.168;4.154;2024-02-23T09:18:54;7.00;99.90
17007;DHT22;8620;51.168;4.154;2024-02-23T09:21:20;7.00;99.90
17007;DHT22;8620;51.168;4.154;2024-02-23T09:23:49;7.20;99.90
17007;DHT22;8620;51.168;4.154;2024-02-23T09:26:15;7.10;99.90
17007;DHT22;8620;51.168;4.154;2024-02-23T09:28:42;7.40;99.90
17007;DHT22;8620;51.168;4.154;2024-02-23T09:31:08;7.40;99.90
17007;DHT22;8620;51.168;4.154;2024-02-23T09:33:37;7.40;99.90
17007;DHT22;8620;51.168;4.154;2024-02-23T09:36:10;7.50;99.90
17007;DHT22;8620;51.168;4.154;2024-02-23T09:38:44;7.70;99.90
17007;DHT22;8620;51.168;4.154;2024-02-23T09:41:29;8.00;99.90
17007;DHT22;8620;51.168;4.154;2024-02-23T09:44:01;8.00;99.90
17007;DHT22;8620;51.168;4.154;2024-02-23T09:46:40;7.90;99.90
17007;DHT22;8620;51.168;4.154;2024-02-23T09:49:11;8.00;99.90
17007;DHT22;8620;51.168;4.154;2024-02-23T09:51:55;7.80;99.90
17007;DHT22;8620;51.168;4.154;2024-02-23T09:54:21;7.90;99.90
17007;DHT22;8620;51.168;4.154;2024-02-23T09:56:53;7.90;99.90
17007;DHT22;8620;51.168;4.154;2024-02-23T09:59:37;8.00;99.90
17007;DHT22;8620;51.168;4.154;2024-02-23T10:02:10;8.00;99.90
17007;DHT22;8620;51.168;4.154;2024-02-23T10:04:42;8.10;99.90
17007;DHT22;8620;51.168;4.154;2024-02-23T10:07:29;8.50;99.90
17007;DHT22;8620;51.168;4.154;2024-02-23T10:09:58;8.60;99.90
17007;DHT22;8620;51.168;4.154;2024-02-23T10:12:37;8.50;99.90
17007;DHT22;8620;51.168;4.154;2024-02-23T10:15:20;8.40;99.90
17007;DHT22;8620;51.168;4.154;2024-02-23T10:17:49;8.10;99.90
17007;DHT22;8620;51.168;4.154;2024-02-23T10:20:20;8.30;99.90
17007;DHT22;8620;51.168;4.154;2024-02-23T10:33:46;7.80;99.90
17007;DHT22;8620;51.168;4.154;2024-02-23T10:36:22;7.90;99.90
17007;DHT22;8620;51.168;4.154;2024-02-23T10:38:53;8.20;99.90
17007;DHT22;8620;51.168;4.154;2024-02-23T10:41:20;8.40;99.90
17007;DHT22;8620;51.168;4.154;2024-02-23T10:43:48;8.50;99.90
17007;DHT22;8620;51.168;4.154;2024-02-23T10:46:15;8.60;99.90
17007;DHT22;8620;51.168;4.154;2024-02-23T10:48:45;8.70;99.90
17007;DHT22;8620;51.168;4.154;2024-02-23T10:51:14;8.70;99.90
17007;DHT22;8620;51.168;4.154;2024-02-23T10:54:00;8.60;99.90
17007;DHT22;8620;51.168;4.154;2024-02-23T10:56:43;9.00;99.90
17007;DHT22;8620;51.168;4.154;2024-02-23T10:59:47;9.00;99.90
17007;DHT22;8620;51.168;4.154;2024-02-23T11:02:33;9.10;99.90
17007;DHT22;8620;51.168;4.154;2024-02-23T11:05:23;9.50;99.90
17007;DHT22;8620;51.168;4.154;2024-02-23T11:08:12;9.70;99.90
17007;DHT22;8620;51.168;4.154;2024-02-23T11:10:43;9.60;99.90
17007;DHT22;8620;51.168;4.154;2024-02-23T11:13:43;9.60;99.90
17007;DHT22;8620;51.168;4.154;2024-02-23T11:16:20;9.30;99.90
17007;DHT22;8620;51.168;4.154;2024-02-23T11:19:34;9.50;99.90
17007;DHT22;8620;51.168;4.154;2024-02-23T11:22:27;9.50;99.90
17007;DHT22;8620;51.168;4.154;2024-02-23T11:25:02;9.90;99.90
17007;DHT22;8620;51.168;4.154;2024-02-23T11:27:37;9.30;99.90
17007;DHT22;8620;51.168;4.154;2024-02-23T11:30:16;9.40;99.90
17007;DHT22;8620;51.168;4.154;2024-02-23T11:32:46;8.80;99.90
17007;DHT22;8620;51.168;4.154;2024-02-23T11:35:15;9.00;99.90
17007;DHT22;8620;51.168;4.154;2024-02-23T11:37:51;9.00;99.90
17007;DHT22;8620;51.168;4.154;2024-02-23T11:40:35;9.10;99.90
17007;DHT22;8620;51.168;4.154;2024-02-23T11:43:04;8.90;99.90
17007;DHT22;8620;51.168;4.154;2024-02-23T11:46:01;9.00;99.90
17007;DHT22;8620;51.168;4.154;2024-02-23T11:48:37;8.90;99.90
17007;DHT22;8620;51.168;4.154;2024-02-23T11:51:03;9.00;99.90
17007;DHT22;8620;51.168;4.154;2024-02-23T11:53:37;9.10;99.90
17007;DHT22;8620;51.168;4.154;2024-02-23T11:56:32;9.30;99.90
17007;DHT22;8620;51.168;4.154;2024-02-23T11:59:14;9.50;99.90
17007;DHT22;8620;51.168;4.154;2024-02-23T12:02:07;10.10;99.90
17007;DHT22;8620;51.168;4.154;2024-02-23T12:05:01;9.70;99.90
17007;DHT22;8620;51.168;4.154;2024-02-23T12:07:35;9.60;99.90
17007;DHT22;8620;51.168;4.154;2024-02-23T12:10:25;9.80;99.90
17007;DHT22;8620;51.168;4.154;2024-02-23T12:12:54;9.40;99.90
17007;DHT22;8620;51.168;4.154;2024-02-23T12:15:29;9.50;99.90
17007;DHT22;8620;51.168;4.154;2024-02-23T12:18:24;9.00;99.90
17007;DHT22;8620;51.168;4.154;2024-02-23T12:21:21;9.10;99.90
17007;DHT22;8620;51.168;4.154;2024-02-23T12:24:11;9.40;99.90
17007;DHT22;8620;51.168;4.154;2024-02-23T12:26:54;9.30;99.90
17007;DHT22;8620;51.168;4.154;2024-02-23T12:29:33;9.40;99.90
17007;DHT22;8620;51.168;4.154;2024-02-23T12:32:25;9.40;99.90
17007;DHT22;8620;51.168;4.154;2024-02-23T12:34:52;9.50;99.90
17007;DHT22;8620;51.168;4.154;2024-02-23T12:37:21;9.50;99.90
17007;DHT22;8620;51.168;4.154;2024-02-23T12:39:50;9.40;99.90
17007;DHT22;8620;51.168;4.154;2024-02-23T12:42:19;9.60;99.90
17007;DHT22;8620;51.168;4.154;2024-02-23T12:44:51;9.60;99.90
17007;DHT22;8620;51.168;4.154;2024-02-23T12:47:28;9.70;99.90
17007;DHT22;8620;51.168;4.154;2024-02-23T12:49:57;9.20;99.90
17007;DHT22;8620;51.168;4.154;2024-02-23T12:52:25;9.40;99.90
17007;DHT22;8620;51.168;4.154;2024-02-23T12:54:51;9.20;99.90
17007;DHT22;8620;51.168;4.154;2024-02-23T12:57:31;9.20;99.90
17007;DHT22;8620;51.168;4.154;2024-02-23T13:00:06;9.60;99.90
17007;DHT22;8620;51.168;4.154;2024-02-23T13:02:32;10.30;99.90
17007;DHT22;8620;51.168;4.154;2024-02-23T13:05:22;10.40;99.90
17007;DHT22;8620;51.168;4.154;2024-02-23T13:07:49;10.60;99.90
17007;DHT22;8620;51.168;4.154;2024-02-23T13:10:26;10.90;99.90
17007;DHT22;8620;51.168;4.154;2024-02-23T13:12:55;11.70;99.90
17007;DHT22;8620;51.168;4.154;2024-02-23T13:15:26;11.90;99.90
17007;DHT22;8620;51.168;4.154;2024-02-23T13:17:55;11.60;99.90
17007;DHT22;8620;51.168;4.154;2024-02-23T13:20:23;10.50;99.90
17007;DHT22;8620;51.168;4.154;2024-02-23T13:22:57;10.20;99.90
17007;DHT22;8620;51.168;4.154;2024-02-23T13:25:25;10.10;99.90
17007;DHT22;8620;51.168;4.154;2024-02-23T13:27:54;10.00;99.90
17007;DHT22;8620;51.168;4.154;2024-02-23T13:30:23;9.80;99.90
17007;DHT22;8620;51.168;4.154;2024-02-23T13:32:57;9.80;99.90
17007;DHT22;8620;51.168;4.154;2024-02-23T13:35:23;9.80;99.90
17007;DHT22;8620;51.168;4.154;2024-02-23T13:37:49;9.90;99.90
17007;DHT22;8620;51.168;4.154;2024-02-23T13:40:18;9.70;99.90
17007;DHT22;8620;51.168;4.154;2024-02-23T13:42:45;10.10;99.90
17007;DHT22;8620;51.168;4.154;2024-02-23T13:45:21;10.40;99.90
17007;DHT22;8620;51.168;4.154;2024-02-23T13:48:02;10.60;99.90
17007;DHT22;8620;51.168;4.154;2024-02-23T13:50:30;10.70;99.90
17007;DHT22;8620;51.168;4.154;2024-02-23T13:52:59;10.60;99.90
17007;DHT22;8620;51.168;4.154;2024-02-23T13:55:42;10.20;99.90
17007;DHT22;8620;51.168;4.154;2024-02-23T13:58:27;10.40;99.90
17007;DHT22;8620;51.168;4.154;2024-02-23T14:00:56;10.10;99.90
17007;DHT22;8620;51.168;4.154;2024-02-23T14:03:28;10.00;99.90
17007;DHT22;8620;51.168;4.154;2024-02-23T14:05:55;10.10;99.90
17007;DHT22;8620;51.168;4.154;2024-02-23T14:08:24;10.10;99.90
17007;DHT22;8620;51.168;4.154;2024-02-23T14:10:59;10.20;99.90
17007;DHT22;8620;51.168;4.154;2024-02-23T14:13:26;10.10;99.90
17007;DHT22;8620;51.168;4.154;2024-02-23T14:16:13;9.80;99.90
17007;DHT22;8620;51.168;4.154;2024-02-23T14:19:02;9.70;99.90
17007;DHT22;8620;51.168;4.154;2024-02-23T14:21:33;9.60;99.90
17007;DHT22;8620;51.168;4.154;2024-02-23T14:24:05;10.00;99.90
17007;DHT22;8620;51.168;4.154;2024-02-23T14:26:38;10.00;99.90
17007;DHT22;8620;51.168;4.154;2024-02-23T14:29:07;10.30;99.90
17007;DHT22;8620;51.168;4.154;2024-02-23T14:31:56;10.50;99.90
17007;DHT22;8620;51.168;4.154;2024-02-23T14:34:30;10.60;99.90
17007;DHT22;8620;51.168;4.154;2024-02-23T14:37:05;10.70;99.90
17007;DHT22;8620;51.168;4.154;2024-02-23T14:39:32;10.40;99.90
17007;DHT22;8620;51.168;4.154;2024-02-23T14:42:02;10.20;99.90
17007;DHT22;8620;51.168;4.154;2024-02-23T14:44:30;10.20;99.90
17007;DHT22;8620;51.168;4.154;2024-02-23T14:46:56;10.30;99.90
17007;DHT22;8620;51.168;4.154;2024-02-23T14:49:32;10.30;99.90
17007;DHT22;8620;51.168;4.154;2024-02-23T14:51:58;10.20;99.90
17007;DHT22;8620;51.168;4.154;2024-02-23T14:54:27;10.10;99.90
17007;DHT22;8620;51.168;4.154;2024-02-23T14:56:56;9.90;99.90
17007;DHT22;8620;51.168;4.154;2024-02-23T14:59:22;9.80;99.90
17007;DHT22;8620;51.168;4.154;2024-02-23T15:01:48;9.70;99.90
17007;DHT22;8620;51.168;4.154;2024-02-23T15:04:19;9.70;99.90
17007;DHT22;8620;51.168;4.154;2024-02-23T15:06:48;9.80;99.90
17007;DHT22;8620;51.168;4.154;2024-02-23T15:09:14;9.90;99.90
17007;DHT22;8620;51.168;4.154;2024-02-23T15:11:40;10.10;99.90
17007;DHT22;8620;51.168;4.154;2024-02-23T15:14:06;10.20;99.90
17007;DHT22;8620;51.168;4.154;2024-02-23T15:16:32;10.00;99.90
17007;DHT22;8620;51.168;4.154;2024-02-23T15:18:58;10.10;99.90
17007;DHT22;8620;51.168;4.154;2024-02-23T15:21:27;10.10;99.90
17007;DHT22;8620;51.168;4.154;2024-02-23T15:23:56;10.20;99.90
17007;DHT22;8620;51.168;4.154;2024-02-23T15:26:22;9.80;99.90
17007;DHT22;8620;51.168;4.154;2024-02-23T15:28:50;9.30;99.90
17007;DHT22;8620;51.168;4.154;2024-02-23T15:31:21;8.40;99.90
17007;DHT22;8620;51.168;4.154;2024-02-23T15:33:47;7.20;99.90
17007;DHT22;8620;51.168;4.154;2024-02-23T15:36:13;6.90;99.90
17007;DHT22;8620;51.168;4.154;2024-02-23T15:38:41;6.60;99.90
17007;DHT22;8620;51.168;4.154;2024-02-23T15:41:07;6.80;99.90
17007;DHT22;8620;51.168;4.154;2024-02-23T15:43:33;7.00;99.90
17007;DHT22;8620;51.168;4.154;2024-02-23T15:45:59;6.80;99.90
17007;DHT22;8620;51.168;4.154;2024-02-23T15:48:26;6.90;99.90
17007;DHT22;8620;51.168;4.154;2024-02-23T15:50:57;7.20;99.90
17007;DHT22;8620;51.168;4.154;2024-02-23T15:53:26;7.40;99.90
17007;DHT22;8620;51.168;4.154;2024-02-23T15:55:52;7.60;99.90
17007;DHT22;8620;51.168;4.154;2024-02-23T15:58:21;7.60;99.90
17007;DHT22;8620;51.168;4.154;2024-02-23T16:00:48;7.80;99.90
17007;DHT22;8620;51.168;4.154;2024-02-23T16:03:19;7.60;99.90
17007;DHT22;8620;51.168;4.154;2024-02-23T16:05:46;7.60;99.90
17007;DHT22;8620;51.168;4.154;2024-02-23T16:08:12;7.60;99.90
17007;DHT22;8620;51.168;4.154;2024-02-23T16:10:39;7.50;99.90
17007;DHT22;8620;51.168;4.154;2024-02-23T16:13:06;7.60;99.90
17007;DHT22;8620;51.168;4.154;2024-02-23T16:15:32;7.60;99.90
17007;DHT22;8620;51.168;4.154;2024-02-23T16:18:01;7.60;99.90
17007;DHT22;8620;51.168;4.154;2024-02-23T16:20:26;7.70;99.90
17007;DHT22;8620;51.168;4.154;2024-02-23T16:22:58;7.90;99.90
17007;DHT22;8620;51.168;4.154;2024-02-23T16:25:28;7.90;99.90
17007;DHT22;8620;51.168;4.154;2024-02-23T16:28:11;8.00;99.90
17007;DHT22;8620;51.168;4.154;2024-02-23T16:30:43;8.00;99.90
17007;DHT22;8620;51.168;4.154;2024-02-23T16:33:15;8.20;99.90
17007;DHT22;8620;51.168;4.154;2024-02-23T16:35:43;8.10;99.90
17007;DHT22;8620;51.168;4.154;2024-02-23T16:38:15;7.90;99.90
17007;DHT22;8620;51.168;4.154;2024-02-23T16:40:56;7.70;99.90
17007;DHT22;8620;51.168;4.154;2024-02-23T16:43:32;7.90;99.90
17007;DHT22;8620;51.168;4.154;2024-02-23T16:46:19;7.90;99.90
17007;DHT22;8620;51.168;4.154;2024-02-23T16:49:10;7.90;99.90
17007;DHT22;8620;51.168;4.154;2024-02-23T16:52:01;7.80;99.90
17007;DHT22;8620;51.168;4.154;2024-02-23T16:54:54;7.80;99.90
17007;DHT22;8620;51.168;4.154;2024-02-23T16:57:30;7.80;99.90
17007;DHT22;8620;51.168;4.154;2024-02-23T17:00:33;7.80;99.90
17007;DHT22;8620;51.168;4.154;2024-02-23T17:03:21;7.80;99.90
17007;DHT22;8620;51.168;4.154;2024-02-23T17:05:59;7.80;99.90
17007;DHT22;8620;51.168;4.154;2024-02-23T17:08:35;7.80;99.90
17007;DHT22;8620;51.168;4.154;2024-02-23T17:11:06;7.90;99.90
17007;DHT22;8620;51.168;4.154;2024-02-23T17:13:38;7.90;99.90
17007;DHT22;8620;51.168;4.154;2024-02-23T17:16:15;8.00;99.90
17007;DHT22;8620;51.168;4.154;2024-02-23T17:18:52;8.20;99.90
17007;DHT22;8620;51.168;4.154;2024-02-23T17:21:26;8.10;99.90
17007;DHT22;8620;51.168;4.154;2024-02-23T17:24:00;8.00;99.90
17007;DHT22;8620;51.168;4.154;2024-02-23T17:26:31;8.20;99.90
17007;DHT22;8620;51.168;4.154;2024-02-23T17:28:57;8.30;99.90
17007;DHT22;8620;51.168;4.154;2024-02-23T17:31:23;8.20;99.90
17007;DHT22;8620;51.168;4.154;2024-02-23T17:33:51;8.10;99.90
17007;DHT22;8620;51.168;4.154;2024-02-23T17:36:21;8.30;99.90
17007;DHT22;8620;51.168;4.154;2024-02-23T17:38:47;8.30;99.90
17007;DHT22;8620;51.168;4.154;2024-02-23T17:41:15;8.40;99.90
17007;DHT22;8620;51.168;4.154;2024-02-23T17:43:44;8.40;99.90
17007;DHT22;8620;51.168;4.154;2024-02-23T17:46:10;8.30;99.90
17007;DHT22;8620;51.168;4.154;2024-02-23T17:48:37;8.20;99.90
17007;DHT22;8620;51.168;4.154;2024-02-23T17:51:03;7.60;99.90
17007;DHT22;8620;51.168;4.154;2024-02-23T17:53:35;7.00;99.90
17007;DHT22;8620;51.168;4.154;2024-02-23T17:56:06;6.70;99.90
17007;DHT22;8620;51.168;4.154;2024-02-23T17:58:44;6.50;99.90
17007;DHT22;8620;51.168;4.154;2024-02-23T18:01:29;6.70;99.90
17007;DHT22;8620;51.168;4.154;2024-02-23T18:04:18;6.80;99.90
17007;DHT22;8620;51.168;4.154;2024-02-23T18:06:48;7.00;99.90
17007;DHT22;8620;51.168;4.154;2024-02-23T18:09:25;6.90;99.90
17007;DHT22;8620;51.168;4.154;2024-02-23T18:12:02;7.00;99.90
17007;DHT22;8620;51.168;4.154;2024-02-23T18:14:37;7.10;99.90
17007;DHT22;8620;51.168;4.154;2024-02-23T18:17:09;7.20;99.90
17007;DHT22;8620;51.168;4.154;2024-02-23T18:19:55;7.10;99.90
17007;DHT22;8620;51.168;4.154;2024-02-23T18:22:23;6.80;99.90
17007;DHT22;8620;51.168;4.154;2024-02-23T18:24:55;6.70;99.90
17007;DHT22;8620;51.168;4.154;2024-02-23T18:27:37;6.60;99.90
17007;DHT22;8620;51.168;4.154;2024-02-23T18:30:10;6.20;99.90
17007;DHT22;8620;51.168;4.154;2024-02-23T18:32:39;6.10;99.90
17007;DHT22;8620;51.168;4.154;2024-02-23T18:35:31;6.00;99.90
17007;DHT22;8620;51.168;4.154;2024-02-23T18:37:57;6.10;99.90
17007;DHT22;8620;51.168;4.154;2024-02-23T18:40:28;6.30;99.90
17007;DHT22;8620;51.168;4.154;2024-02-23T18:42:57;6.20;99.90
17007;DHT22;8620;51.168;4.154;2024-02-23T18:45:28;6.20;99.90
17007;DHT22;8620;51.168;4.154;2024-02-23T18:47:54;6.40;99.90
17007;DHT22;8620;51.168;4.154;2024-02-23T18:50:20;6.50;99.90
17007;DHT22;8620;51.168;4.154;2024-02-23T18:52:48;6.40;99.90
17007;DHT22;8620;51.168;4.154;2024-02-23T18:55:14;6.50;99.90
17007;DHT22;8620;51.168;4.154;2024-02-23T18:57:40;6.50;99.90
17007;DHT22;8620;51.168;4.154;2024-02-23T19:00:18;6.40;99.90
17007;DHT22;8620;51.168;4.154;2024-02-23T19:02:48;6.50;99.90
17007;DHT22;8620;51.168;4.154;2024-02-23T19:05:14;6.40;99.90
17007;DHT22;8620;51.168;4.154;2024-02-23T19:07:40;6.50;99.90
17007;DHT22;8620;51.168;4.154;2024-02-23T19:10:09;6.30;99.90
17007;DHT22;8620;51.168;4.154;2024-02-23T19:12:38;6.40;99.90
17007;DHT22;8620;51.168;4.154;2024-02-23T19:15:08;6.60;99.90
17007;DHT22;8620;51.168;4.154;2024-02-23T19:17:34;6.50;99.90
17007;DHT22;8620;51.168;4.154;2024-02-23T19:20:01;6.60;99.90
17007;DHT22;8620;51.168;4.154;2024-02-23T19:22:27;6.70;99.90
17007;DHT22;8620;51.168;4.154;2024-02-23T19:24:53;6.80;99.90
17007;DHT22;8620;51.168;4.154;2024-02-23T19:27:22;6.80;99.90
17007;DHT22;8620;51.168;4.154;2024-02-23T19:29:47;6.80;99.90
17007;DHT22;8620;51.168;4.154;2024-02-23T19:32:16;6.80;99.90
17007;DHT22;8620;51.168;4.154;2024-02-23T19:34:44;6.70;99.90
17007;DHT22;8620;51.168;4.154;2024-02-23T19:37:10;6.60;99.90
17007;DHT22;8620;51.168;4.154;2024-02-23T19:39:39;6.50;99.90
17007;DHT22;8620;51.168;4.154;2024-02-23T19:42:08;6.70;99.90
17007;DHT22;8620;51.168;4.154;2024-02-23T19:44:34;6.60;99.90
17007;DHT22;8620;51.168;4.154;2024-02-23T19:46:59;6.60;99.90
17007;DHT22;8620;51.168;4.154;2024-02-23T19:49:28;6.70;99.90
17007;DHT22;8620;51.168;4.154;2024-02-23T19:51:56;6.70;99.90
17007;DHT22;8620;51.168;4.154;2024-02-23T19:54:43;6.70;99.90
17007;DHT22;8620;51.168;4.154;2024-02-23T19:57:13;6.70;99.90
17007;DHT22;8620;51.168;4.154;2024-02-23T19:59:39;6.70;99.90
17007;DHT22;8620;51.168;4.154;2024-02-23T20:02:06;6.70;99.90
17007;DHT22;8620;51.168;4.154;2024-02-23T20:04:42;6.60;99.90
17007;DHT22;8620;51.168;4.154;2024-02-23T20:07:09;6.60;99.90
17007;DHT22;8620;51.168;4.154;2024-02-23T20:09:43;6.50;99.90
17007;DHT22;8620;51.168;4.154;2024-02-23T20:12:15;6.50;99.90
17007;DHT22;8620;51.168;4.154;2024-02-23T20:14:49;6.50;99.90
17007;DHT22;8620;51.168;4.154;2024-02-23T20:17:16;6.40;99.90
17007;DHT22;8620;51.168;4.154;2024-02-23T20:19:53;6.40;99.90
17007;DHT22;8620;51.168;4.154;2024-02-23T20:22:22;6.30;99.90
17007;DHT22;8620;51.168;4.154;2024-02-23T20:25:02;6.40;99.90
17007;DHT22;8620;51.168;4.154;2024-02-23T20:27:28;6.40;99.90
17007;DHT22;8620;51.168;4.154;2024-02-23T20:29:54;6.40;99.90
17007;DHT22;8620;51.168;4.154;2024-02-23T20:32:31;6.40;99.90
17007;DHT22;8620;51.168;4.154;2024-02-23T20:34:57;6.30;99.90
17007;DHT22;8620;51.168;4.154;2024-02-23T20:37:27;6.30;99.90
17007;DHT22;8620;51.168;4.154;2024-02-23T20:39:57;6.20;99.90
17007;DHT22;8620;51.168;4.154;2024-02-23T20:42:39;6.30;99.90
17007;DHT22;8620;51.168;4.154;2024-02-23T20:45:06;6.40;99.90
17007;DHT22;8620;51.168;4.154;2024-02-23T20:47:37;6.20;99.90
17007;DHT22;8620;51.168;4.154;2024-02-23T20:50:06;6.30;99.90
17007;DHT22;8620;51.168;4.154;2024-02-23T20:52:32;6.20;99.90
17007;DHT22;8620;51.168;4.154;2024-02-23T20:54:58;6.20;99.90
17007;DHT22;8620;51.168;4.154;2024-02-23T20:57:26;6.20;99.90
